sensor_id;sensor_type;location;lat;lon;timestamp;temperature;humidity
80579;SHT31;69939;52.402;6.608;2024-03-17T00:01:27;3.18;99.99
80579;SHT31;69939;52.402;6.608;2024-03-17T00:04:00;3.18;99.99
80579;SHT31;69939;52.402;6.608;2024-03-17T00:06:44;3.15;99.99
80579;SHT31;69939;52.402;6.608;2024-03-17T00:09:15;3.15;99.99
80579;SHT31;69939;52.402;6.608;2024-03-17T00:11:44;3.15;99.94
80579;SHT31;69939;52.402;6.608;2024-03-17T00:14:15;3.15;99.96
80579;SHT31;69939;52.402;6.608;2024-03-17T00:16:43;3.18;99.99
80579;SHT31;69939;52.402;6.608;2024-03-17T00:19:14;3.18;99.99
80579;SHT31;69939;52.402;6.608;2024-03-17T00:21:45;3.19;99.95
80579;SHT31;69939;52.402;6.608;2024-03-17T00:24:16;3.21;99.92
80579;SHT31;69939;52.402;6.608;2024-03-17T00:26:46;3.19;99.86
80579;SHT31;69939;52.402;6.608;2024-03-17T00:29:16;3.19;99.99
80579;SHT31;69939;52.402;6.608;2024-03-17T00:31:43;3.21;99.86
80579;SHT31;69939;52.402;6.608;2024-03-17T00:34:18;3.19;99.91
80579;SHT31;69939;52.402;6.608;2024-03-17T00:36:49;3.22;99.89
80579;SHT31;69939;52.402;6.608;2024-03-17T00:39:27;3.26;99.95
80579;SHT31;69939;52.402;6.608;2024-03-17T00:41:58;3.29;99.94
80579;SHT31;69939;52.402;6.608;2024-03-17T00:44:25;3.29;99.85
80579;SHT31;69939;52.402;6.608;2024-03-17T00:46:55;3.31;99.89
80579;SHT31;69939;52.402;6.608;2024-03-17T00:49:24;3.29;99.85
80579;SHT31;69939;52.402;6.608;2024-03-17T00:51:51;3.28;99.59
80579;SHT31;69939;52.402;6.608;2024-03-17T00:54:20;3.26;99.50
80579;SHT31;69939;52.402;6.608;2024-03-17T00:56:55;3.26;99.73
80579;SHT31;69939;52.402;6.608;2024-03-17T00:59:25;3.24;99.70
80579;SHT31;69939;52.402;6.608;2024-03-17T01:02:05;3.24;99.87
80579;SHT31;69939;52.402;6.608;2024-03-17T01:04:34;3.25;99.63
80579;SHT31;69939;52.402;6.608;2024-03-17T01:07:01;3.21;99.50
80579;SHT31;69939;52.402;6.608;2024-03-17T01:09:31;3.16;99.69
80579;SHT31;69939;52.402;6.608;2024-03-17T01:12:12;3.18;99.65
80579;SHT31;69939;52.402;6.608;2024-03-17T01:14:43;3.21;99.78
80579;SHT31;69939;52.402;6.608;2024-03-17T01:17:10;3.19;99.68
80579;SHT31;69939;52.402;6.608;2024-03-17T01:19:39;3.16;99.76
80579;SHT31;69939;52.402;6.608;2024-03-17T01:22:06;3.14;99.65
80579;SHT31;69939;52.402;6.608;2024-03-17T01:24:36;3.11;99.66
80579;SHT31;69939;52.402;6.608;2024-03-17T01:27:05;3.11;99.72
80579;SHT31;69939;52.402;6.608;2024-03-17T01:29:42;3.04;99.51
80579;SHT31;69939;52.402;6.608;2024-03-17T01:32:10;3.03;99.64
80579;SHT31;69939;52.402;6.608;2024-03-17T01:34:40;2.98;99.71
80579;SHT31;69939;52.402;6.608;2024-03-17T01:37:09;2.94;99.79
80579;SHT31;69939;52.402;6.608;2024-03-17T01:39:41;2.91;99.99
80579;SHT31;69939;52.402;6.608;2024-03-17T01:42:08;2.87;99.94
80579;SHT31;69939;52.402;6.608;2024-03-17T01:44:38;2.79;99.72
80579;SHT31;69939;52.402;6.608;2024-03-17T01:47:08;2.74;99.97
80579;SHT31;69939;52.402;6.608;2024-03-17T01:49:39;2.73;99.97
80579;SHT31;69939;52.402;6.608;2024-03-17T01:52:07;2.70;99.85
80579;SHT31;69939;52.402;6.608;2024-03-17T01:54:39;2.68;99.99
80579;SHT31;69939;52.402;6.608;2024-03-17T01:57:10;2.70;99.99
80579;SHT31;69939;52.402;6.608;2024-03-17T01:59:40;2.68;99.99
80579;SHT31;69939;52.402;6.608;2024-03-17T02:02:10;2.72;99.99
80579;SHT31;69939;52.402;6.608;2024-03-17T02:04:41;2.66;99.99
80579;SHT31;69939;52.402;6.608;2024-03-17T02:07:08;2.66;99.99
80579;SHT31;69939;52.402;6.608;2024-03-17T02:09:43;2.67;99.99
80579;SHT31;69939;52.402;6.608;2024-03-17T02:12:13;2.63;99.99
80579;SHT31;69939;52.402;6.608;2024-03-17T02:14:40;2.57;99.99
80579;SHT31;69939;52.402;6.608;2024-03-17T02:17:09;2.54;99.99
80579;SHT31;69939;52.402;6.608;2024-03-17T02:19:36;2.56;99.99
80579;SHT31;69939;52.402;6.608;2024-03-17T02:22:13;2.60;99.99
80579;SHT31;69939;52.402;6.608;2024-03-17T02:24:52;2.61;99.99
80579;SHT31;69939;52.402;6.608;2024-03-17T02:27:25;2.61;99.99
80579;SHT31;69939;52.402;6.608;2024-03-17T02:29:52;2.66;99.99
80579;SHT31;69939;52.402;6.608;2024-03-17T02:32:22;2.68;99.99
80579;SHT31;69939;52.402;6.608;2024-03-17T02:34:49;2.60;99.99
80579;SHT31;69939;52.402;6.608;2024-03-17T02:37:18;2.60;99.99
80579;SHT31;69939;52.402;6.608;2024-03-17T02:39:47;2.63;99.99
80579;SHT31;69939;52.402;6.608;2024-03-17T02:42:17;2.64;99.99
80579;SHT31;69939;52.402;6.608;2024-03-17T02:44:46;2.63;99.99
80579;SHT31;69939;52.402;6.608;2024-03-17T02:47:16;2.63;99.99
80579;SHT31;69939;52.402;6.608;2024-03-17T02:49:45;2.61;99.99
80579;SHT31;69939;52.402;6.608;2024-03-17T02:52:16;2.60;99.99
80579;SHT31;69939;52.402;6.608;2024-03-17T02:54:46;2.60;99.99
80579;SHT31;69939;52.402;6.608;2024-03-17T02:57:19;2.57;99.99
80579;SHT31;69939;52.402;6.608;2024-03-17T02:59:50;2.56;99.99
80579;SHT31;69939;52.402;6.608;2024-03-17T03:02:22;2.58;99.99
80579;SHT31;69939;52.402;6.608;2024-03-17T03:04:52;2.60;99.99
80579;SHT31;69939;52.402;6.608;2024-03-17T03:07:21;2.66;99.99
80579;SHT31;69939;52.402;6.608;2024-03-17T03:09:51;2.70;99.99
80579;SHT31;69939;52.402;6.608;2024-03-17T03:12:23;2.74;99.99
80579;SHT31;69939;52.402;6.608;2024-03-17T03:14:53;2.74;99.99
80579;SHT31;69939;52.402;6.608;2024-03-17T03:17:29;2.74;99.99
80579;SHT31;69939;52.402;6.608;2024-03-17T03:19:59;2.77;99.99
80579;SHT31;69939;52.402;6.608;2024-03-17T03:22:29;2.84;99.99
80579;SHT31;69939;52.402;6.608;2024-03-17T03:24:58;2.90;99.99
80579;SHT31;69939;52.402;6.608;2024-03-17T03:27:28;2.93;99.99
80579;SHT31;69939;52.402;6.608;2024-03-17T03:29:57;2.91;99.99
80579;SHT31;69939;52.402;6.608;2024-03-17T03:32:29;2.90;99.99
80579;SHT31;69939;52.402;6.608;2024-03-17T03:35:03;2.90;99.99
80579;SHT31;69939;52.402;6.608;2024-03-17T03:37:33;2.90;99.99
80579;SHT31;69939;52.402;6.608;2024-03-17T03:40:07;2.88;99.99
80579;SHT31;69939;52.402;6.608;2024-03-17T03:42:42;2.94;99.99
80579;SHT31;69939;52.402;6.608;2024-03-17T03:45:20;3.00;99.99
80579;SHT31;69939;52.402;6.608;2024-03-17T03:47:51;3.03;99.99
80579;SHT31;69939;52.402;6.608;2024-03-17T03:50:21;3.12;99.99
80579;SHT31;69939;52.402;6.608;2024-03-17T03:52:51;3.22;99.99
80579;SHT31;69939;52.402;6.608;2024-03-17T03:55:21;3.29;99.99
80579;SHT31;69939;52.402;6.608;2024-03-17T03:57:51;3.36;99.99
80579;SHT31;69939;52.402;6.608;2024-03-17T04:00:26;3.39;99.99
80579;SHT31;69939;52.402;6.608;2024-03-17T04:02:58;3.48;99.99
80579;SHT31;69939;52.402;6.608;2024-03-17T04:05:32;3.51;99.78
80579;SHT31;69939;52.402;6.608;2024-03-17T04:08:01;3.53;99.62
80579;SHT31;69939;52.402;6.608;2024-03-17T04:10:31;3.56;99.44
80579;SHT31;69939;52.402;6.608;2024-03-17T04:13:01;3.60;99.22
80579;SHT31;69939;52.402;6.608;2024-03-17T04:15:34;3.63;98.97
80579;SHT31;69939;52.402;6.608;2024-03-17T04:18:04;3.67;98.75
80579;SHT31;69939;52.402;6.608;2024-03-17T04:20:34;3.70;98.48
80579;SHT31;69939;52.402;6.608;2024-03-17T04:23:08;3.74;98.29
80579;SHT31;69939;52.402;6.608;2024-03-17T04:25:39;3.79;98.24
80579;SHT31;69939;52.402;6.608;2024-03-17T04:28:07;3.80;98.15
80579;SHT31;69939;52.402;6.608;2024-03-17T04:30:40;3.83;98.04
80579;SHT31;69939;52.402;6.608;2024-03-17T04:33:09;3.84;98.00
80579;SHT31;69939;52.402;6.608;2024-03-17T04:35:39;3.86;97.85
80579;SHT31;69939;52.402;6.608;2024-03-17T04:38:17;3.91;97.90
80579;SHT31;69939;52.402;6.608;2024-03-17T04:40:47;3.91;97.70
80579;SHT31;69939;52.402;6.608;2024-03-17T04:43:18;3.94;97.64
80579;SHT31;69939;52.402;6.608;2024-03-17T04:45:48;3.97;97.55
80579;SHT31;69939;52.402;6.608;2024-03-17T04:48:17;3.98;97.41
80579;SHT31;69939;52.402;6.608;2024-03-17T04:50:47;4.00;97.31
80579;SHT31;69939;52.402;6.608;2024-03-17T04:53:19;4.04;97.24
80579;SHT31;69939;52.402;6.608;2024-03-17T04:56:01;4.08;97.18
80579;SHT31;69939;52.402;6.608;2024-03-17T04:58:31;4.10;97.13
80579;SHT31;69939;52.402;6.608;2024-03-17T05:01:05;4.11;96.95
80579;SHT31;69939;52.402;6.608;2024-03-17T05:03:38;4.14;96.91
80579;SHT31;69939;52.402;6.608;2024-03-17T05:06:10;4.17;96.81
80579;SHT31;69939;52.402;6.608;2024-03-17T05:08:43;4.14;96.83
80579;SHT31;69939;52.402;6.608;2024-03-17T05:11:13;4.15;96.62
80579;SHT31;69939;52.402;6.608;2024-03-17T05:13:44;4.15;96.65
80579;SHT31;69939;52.402;6.608;2024-03-17T05:16:14;4.15;96.45
80579;SHT31;69939;52.402;6.608;2024-03-17T05:18:44;4.10;96.53
80579;SHT31;69939;52.402;6.608;2024-03-17T05:21:13;4.07;96.59
80579;SHT31;69939;52.402;6.608;2024-03-17T05:23:46;4.04;96.70
80579;SHT31;69939;52.402;6.608;2024-03-17T05:26:15;4.00;96.68
80579;SHT31;69939;52.402;6.608;2024-03-17T05:28:45;3.95;96.80
80579;SHT31;69939;52.402;6.608;2024-03-17T05:31:15;3.95;96.77
80579;SHT31;69939;52.402;6.608;2024-03-17T05:33:46;3.91;96.62
80579;SHT31;69939;52.402;6.608;2024-03-17T05:36:17;3.86;96.77
80579;SHT31;69939;52.402;6.608;2024-03-17T05:38:51;3.84;96.80
80579;SHT31;69939;52.402;6.608;2024-03-17T05:41:21;3.81;97.19
80579;SHT31;69939;52.402;6.608;2024-03-17T05:43:51;3.81;96.99
80579;SHT31;69939;52.402;6.608;2024-03-17T05:46:26;3.77;96.99
80579;SHT31;69939;52.402;6.608;2024-03-17T05:48:56;3.80;97.11
80579;SHT31;69939;52.402;6.608;2024-03-17T05:51:26;3.84;96.98
80579;SHT31;69939;52.402;6.608;2024-03-17T05:53:58;3.89;96.94
80579;SHT31;69939;52.402;6.608;2024-03-17T05:56:28;3.93;96.84
80579;SHT31;69939;52.402;6.608;2024-03-17T05:59:00;3.97;96.82
80579;SHT31;69939;52.402;6.608;2024-03-17T06:01:33;4.01;96.69
80579;SHT31;69939;52.402;6.608;2024-03-17T06:04:05;4.08;96.53
80579;SHT31;69939;52.402;6.608;2024-03-17T06:06:36;4.15;96.45
80579;SHT31;69939;52.402;6.608;2024-03-17T06:09:08;4.24;96.29
80579;SHT31;69939;52.402;6.608;2024-03-17T06:11:38;4.34;96.12
80579;SHT31;69939;52.402;6.608;2024-03-17T06:14:09;4.41;95.85
80579;SHT31;69939;52.402;6.608;2024-03-17T06:16:39;4.52;95.86
80579;SHT31;69939;52.402;6.608;2024-03-17T06:19:09;4.62;95.66
80579;SHT31;69939;52.402;6.608;2024-03-17T06:21:40;4.72;95.41
80579;SHT31;69939;52.402;6.608;2024-03-17T06:24:13;4.86;95.11
80579;SHT31;69939;52.402;6.608;2024-03-17T06:26:44;4.94;95.10
80579;SHT31;69939;52.402;6.608;2024-03-17T06:29:14;5.01;94.29
80579;SHT31;69939;52.402;6.608;2024-03-17T06:31:48;5.10;94.50
80579;SHT31;69939;52.402;6.608;2024-03-17T06:34:18;5.21;93.90
80579;SHT31;69939;52.402;6.608;2024-03-17T06:36:48;5.32;93.68
80579;SHT31;69939;52.402;6.608;2024-03-17T06:39:20;5.46;93.64
80579;SHT31;69939;52.402;6.608;2024-03-17T06:41:49;5.60;93.02
80579;SHT31;69939;52.402;6.608;2024-03-17T06:44:27;5.73;92.59
80579;SHT31;69939;52.402;6.608;2024-03-17T06:46:58;5.87;92.47
80579;SHT31;69939;52.402;6.608;2024-03-17T06:49:29;6.25;93.37
80579;SHT31;69939;52.402;6.608;2024-03-17T06:52:09;6.67;91.08
80579;SHT31;69939;52.402;6.608;2024-03-17T06:54:38;7.16;89.78
80579;SHT31;69939;52.402;6.608;2024-03-17T06:57:08;7.47;87.95
80579;SHT31;69939;52.402;6.608;2024-03-17T06:59:40;7.32;87.42
80579;SHT31;69939;52.402;6.608;2024-03-17T07:02:14;7.21;87.86
80579;SHT31;69939;52.402;6.608;2024-03-17T07:04:49;7.21;88.17
80579;SHT31;69939;52.402;6.608;2024-03-17T07:07:19;7.23;87.89
80579;SHT31;69939;52.402;6.608;2024-03-17T07:09:48;7.24;87.92
80579;SHT31;69939;52.402;6.608;2024-03-17T07:12:28;7.48;88.07
80579;SHT31;69939;52.402;6.608;2024-03-17T07:14:57;7.97;86.09
80579;SHT31;69939;52.402;6.608;2024-03-17T07:17:28;8.29;85.04
80579;SHT31;69939;52.402;6.608;2024-03-17T07:19:58;8.19;84.98
80579;SHT31;69939;52.402;6.608;2024-03-17T07:22:30;8.16;85.33
80579;SHT31;69939;52.402;6.608;2024-03-17T07:25:00;8.07;85.23
80579;SHT31;69939;52.402;6.608;2024-03-17T07:27:33;8.14;84.70
80579;SHT31;69939;52.402;6.608;2024-03-17T07:30:06;8.73;83.83
80579;SHT31;69939;52.402;6.608;2024-03-17T07:32:36;9.08;82.30
80579;SHT31;69939;52.402;6.608;2024-03-17T07:35:08;8.92;83.05
80579;SHT31;69939;52.402;6.608;2024-03-17T07:37:39;8.83;82.54
80579;SHT31;69939;52.402;6.608;2024-03-17T07:40:10;8.71;83.34
80579;SHT31;69939;52.402;6.608;2024-03-17T07:42:43;8.61;83.23
80579;SHT31;69939;52.402;6.608;2024-03-17T07:45:13;8.61;83.52
80579;SHT31;69939;52.402;6.608;2024-03-17T07:47:50;8.64;84.34
80579;SHT31;69939;52.402;6.608;2024-03-17T07:50:19;8.79;84.15
80579;SHT31;69939;52.402;6.608;2024-03-17T07:52:49;9.47;81.41
80579;SHT31;69939;52.402;6.608;2024-03-17T07:55:18;9.82;81.66
80579;SHT31;69939;52.402;6.608;2024-03-17T07:57:48;9.85;80.28
80579;SHT31;69939;52.402;6.608;2024-03-17T08:00:23;9.85;82.82
80579;SHT31;69939;52.402;6.608;2024-03-17T08:03:02;10.09;80.08
80579;SHT31;69939;52.402;6.608;2024-03-17T08:05:33;10.28;80.25
80579;SHT31;69939;52.402;6.608;2024-03-17T08:08:03;10.56;78.58
80579;SHT31;69939;52.402;6.608;2024-03-17T08:10:37;10.60;78.61
80579;SHT31;69939;52.402;6.608;2024-03-17T08:13:10;10.64;79.61
80579;SHT31;69939;52.402;6.608;2024-03-17T08:15:41;10.95;78.97
80579;SHT31;69939;52.402;6.608;2024-03-17T08:18:14;11.56;76.86
80579;SHT31;69939;52.402;6.608;2024-03-17T08:20:43;11.70;75.38
80579;SHT31;69939;52.402;6.608;2024-03-17T08:23:19;11.52;74.55
80579;SHT31;69939;52.402;6.608;2024-03-17T08:25:52;11.43;75.68
80579;SHT31;69939;52.402;6.608;2024-03-17T08:28:30;11.23;76.23
80579;SHT31;69939;52.402;6.608;2024-03-17T08:31:01;11.16;76.75
80579;SHT31;69939;52.402;6.608;2024-03-17T08:33:33;11.22;77.10
80579;SHT31;69939;52.402;6.608;2024-03-17T08:36:04;11.15;76.90
80579;SHT31;69939;52.402;6.608;2024-03-17T08:38:38;11.18;77.15
80579;SHT31;69939;52.402;6.608;2024-03-17T08:41:10;11.18;76.71
80579;SHT31;69939;52.402;6.608;2024-03-17T08:43:40;11.08;76.89
80579;SHT31;69939;52.402;6.608;2024-03-17T08:46:15;11.39;76.07
80579;SHT31;69939;52.402;6.608;2024-03-17T08:48:44;11.36;74.97
80579;SHT31;69939;52.402;6.608;2024-03-17T08:51:14;11.57;75.77
80579;SHT31;69939;52.402;6.608;2024-03-17T08:53:43;11.62;74.13
80579;SHT31;69939;52.402;6.608;2024-03-17T08:56:13;11.86;73.16
80579;SHT31;69939;52.402;6.608;2024-03-17T08:58:42;12.17;73.35
80579;SHT31;69939;52.402;6.608;2024-03-17T09:01:16;12.45;72.36
80579;SHT31;69939;52.402;6.608;2024-03-17T09:03:45;12.64;72.65
80579;SHT31;69939;52.402;6.608;2024-03-17T09:06:17;12.80;71.62
80579;SHT31;69939;52.402;6.608;2024-03-17T09:08:47;13.06;70.55
80579;SHT31;69939;52.402;6.608;2024-03-17T09:11:17;13.14;71.42
80579;SHT31;69939;52.402;6.608;2024-03-17T09:13:44;13.55;68.51
80579;SHT31;69939;52.402;6.608;2024-03-17T09:16:16;13.48;67.56
80579;SHT31;69939;52.402;6.608;2024-03-17T09:18:50;13.69;67.42
80579;SHT31;69939;52.402;6.608;2024-03-17T09:21:20;13.93;68.31
80579;SHT31;69939;52.402;6.608;2024-03-17T09:23:49;13.86;67.37
80579;SHT31;69939;52.402;6.608;2024-03-17T09:26:19;13.86;66.76
80579;SHT31;69939;52.402;6.608;2024-03-17T09:28:49;14.42;66.69
80579;SHT31;69939;52.402;6.608;2024-03-17T09:31:29;14.82;64.54
80579;SHT31;69939;52.402;6.608;2024-03-17T09:34:00;14.46;65.41
80579;SHT31;69939;52.402;6.608;2024-03-17T09:36:30;14.83;64.70
80579;SHT31;69939;52.402;6.608;2024-03-17T09:39:00;14.73;62.42
80579;SHT31;69939;52.402;6.608;2024-03-17T09:41:30;14.75;63.51
80579;SHT31;69939;52.402;6.608;2024-03-17T09:44:01;14.98;63.86
80579;SHT31;69939;52.402;6.608;2024-03-17T09:46:34;15.43;63.63
80579;SHT31;69939;52.402;6.608;2024-03-17T09:49:04;15.46;61.57
80579;SHT31;69939;52.402;6.608;2024-03-17T09:51:33;15.14;61.91
80579;SHT31;69939;52.402;6.608;2024-03-17T09:54:05;15.40;62.64
80579;SHT31;69939;52.402;6.608;2024-03-17T09:56:48;15.77;63.21
80579;SHT31;69939;52.402;6.608;2024-03-17T09:59:19;15.95;62.63
80579;SHT31;69939;52.402;6.608;2024-03-17T10:01:52;16.32;61.14
80579;SHT31;69939;52.402;6.608;2024-03-17T10:04:31;16.75;59.54
80579;SHT31;69939;52.402;6.608;2024-03-17T10:07:04;16.65;59.58
80579;SHT31;69939;52.402;6.608;2024-03-17T10:09:37;16.33;59.85
80579;SHT31;69939;52.402;6.608;2024-03-17T10:12:25;16.30;59.06
80579;SHT31;69939;52.402;6.608;2024-03-17T10:15:01;16.50;58.61
80579;SHT31;69939;52.402;6.608;2024-03-17T10:17:31;16.75;59.52
80579;SHT31;69939;52.402;6.608;2024-03-17T10:20:15;16.89;59.01
80579;SHT31;69939;52.402;6.608;2024-03-17T10:23:00;16.85;57.37
80579;SHT31;69939;52.402;6.608;2024-03-17T10:25:39;16.65;57.44
80579;SHT31;69939;52.402;6.608;2024-03-17T10:28:16;15.95;59.02
80579;SHT31;69939;52.402;6.608;2024-03-17T10:30:57;15.96;59.55
80579;SHT31;69939;52.402;6.608;2024-03-17T10:33:29;15.96;58.96
80579;SHT31;69939;52.402;6.608;2024-03-17T10:35:59;15.72;59.22
80579;SHT31;69939;52.402;6.608;2024-03-17T10:38:31;15.51;58.23
80579;SHT31;69939;52.402;6.608;2024-03-17T10:41:03;15.41;59.71
80579;SHT31;69939;52.402;6.608;2024-03-17T10:43:36;15.33;58.86
80579;SHT31;69939;52.402;6.608;2024-03-17T10:46:07;15.22;60.82
80579;SHT31;69939;52.402;6.608;2024-03-17T10:48:48;14.57;60.27
80579;SHT31;69939;52.402;6.608;2024-03-17T10:51:22;14.33;62.86
80579;SHT31;69939;52.402;6.608;2024-03-17T10:53:53;14.16;63.35
80579;SHT31;69939;52.402;6.608;2024-03-17T10:56:25;14.09;62.84
80579;SHT31;69939;52.402;6.608;2024-03-17T10:58:56;14.02;62.32
80579;SHT31;69939;52.402;6.608;2024-03-17T11:01:31;13.66;62.73
80579;SHT31;69939;52.402;6.608;2024-03-17T11:04:09;13.62;63.58
80579;SHT31;69939;52.402;6.608;2024-03-17T11:06:43;13.76;63.43
80579;SHT31;69939;52.402;6.608;2024-03-17T11:09:15;13.79;62.34
80579;SHT31;69939;52.402;6.608;2024-03-17T11:11:46;13.85;62.95
80579;SHT31;69939;52.402;6.608;2024-03-17T11:14:18;13.77;61.77
80579;SHT31;69939;52.402;6.608;2024-03-17T11:16:48;13.75;63.75
80579;SHT31;69939;52.402;6.608;2024-03-17T11:19:21;13.90;63.13
80579;SHT31;69939;52.402;6.608;2024-03-17T11:21:57;13.83;64.18
80579;SHT31;69939;52.402;6.608;2024-03-17T11:24:27;13.91;62.46
80579;SHT31;69939;52.402;6.608;2024-03-17T11:26:57;13.73;63.38
80579;SHT31;69939;52.402;6.608;2024-03-17T11:29:28;13.76;62.42
80579;SHT31;69939;52.402;6.608;2024-03-17T11:31:55;13.73;62.66
80579;SHT31;69939;52.402;6.608;2024-03-17T11:34:32;13.86;62.85
80579;SHT31;69939;52.402;6.608;2024-03-17T11:37:41;13.54;63.12
80579;SHT31;69939;52.402;6.608;2024-03-17T11:40:24;13.72;62.70
80579;SHT31;69939;52.402;6.608;2024-03-17T11:43:01;13.97;62.13
80579;SHT31;69939;52.402;6.608;2024-03-17T11:45:33;14.09;61.78
80579;SHT31;69939;52.402;6.608;2024-03-17T11:48:01;14.16;60.93
80579;SHT31;69939;52.402;6.608;2024-03-17T11:50:34;14.25;61.10
80579;SHT31;69939;52.402;6.608;2024-03-17T11:53:09;14.37;60.31
80579;SHT31;69939;52.402;6.608;2024-03-17T11:55:48;14.30;59.91
80579;SHT31;69939;52.402;6.608;2024-03-17T11:58:14;14.51;59.83
80579;SHT31;69939;52.402;6.608;2024-03-17T12:00:51;14.25;58.91
80579;SHT31;69939;52.402;6.608;2024-03-17T12:03:18;14.09;60.27
80579;SHT31;69939;52.402;6.608;2024-03-17T12:05:48;14.12;60.25
80579;SHT31;69939;52.402;6.608;2024-03-17T12:08:21;14.18;61.13
80579;SHT31;69939;52.402;6.608;2024-03-17T12:10:51;14.38;58.86
80579;SHT31;69939;52.402;6.608;2024-03-17T12:13:18;14.45;59.92
80579;SHT31;69939;52.402;6.608;2024-03-17T12:15:47;14.60;58.62
80579;SHT31;69939;52.402;6.608;2024-03-17T12:18:24;14.78;57.03
80579;SHT31;69939;52.402;6.608;2024-03-17T12:20:56;14.95;58.37
80579;SHT31;69939;52.402;6.608;2024-03-17T12:23:24;15.04;57.75
80579;SHT31;69939;52.402;6.608;2024-03-17T12:25:54;15.20;56.85
80579;SHT31;69939;52.402;6.608;2024-03-17T12:28:53;15.38;55.95
80579;SHT31;69939;52.402;6.608;2024-03-17T12:32:02;15.62;55.45
80579;SHT31;69939;52.402;6.608;2024-03-17T12:34:53;16.02;56.21
80579;SHT31;69939;52.402;6.608;2024-03-17T12:37:26;16.22;53.73
80579;SHT31;69939;52.402;6.608;2024-03-17T12:39:59;16.34;53.46
80579;SHT31;69939;52.402;6.608;2024-03-17T12:42:29;16.68;52.76
80579;SHT31;69939;52.402;6.608;2024-03-17T12:44:58;16.64;53.01
80579;SHT31;69939;52.402;6.608;2024-03-17T12:47:31;16.85;52.36
80579;SHT31;69939;52.402;6.608;2024-03-17T12:50:11;16.68;51.77
80579;SHT31;69939;52.402;6.608;2024-03-17T12:52:52;16.50;52.07
80579;SHT31;69939;52.402;6.608;2024-03-17T12:55:20;16.53;50.51
80579;SHT31;69939;52.402;6.608;2024-03-17T12:58:17;16.71;51.81
80579;SHT31;69939;52.402;6.608;2024-03-17T13:00:59;16.64;52.71
80579;SHT31;69939;52.402;6.608;2024-03-17T13:03:38;15.75;52.01
80579;SHT31;69939;52.402;6.608;2024-03-17T13:06:20;15.40;54.98
80579;SHT31;69939;52.402;6.608;2024-03-17T13:08:52;15.19;54.69
80579;SHT31;69939;52.402;6.608;2024-03-17T13:11:22;15.10;54.66
80579;SHT31;69939;52.402;6.608;2024-03-17T13:13:53;15.02;54.53
80579;SHT31;69939;52.402;6.608;2024-03-17T13:16:34;15.04;55.49
80579;SHT31;69939;52.402;6.608;2024-03-17T13:19:03;14.99;54.69
80579;SHT31;69939;52.402;6.608;2024-03-17T13:21:33;15.04;54.41
80579;SHT31;69939;52.402;6.608;2024-03-17T13:24:03;15.09;54.80
80579;SHT31;69939;52.402;6.608;2024-03-17T13:26:42;15.04;55.83
80579;SHT31;69939;52.402;6.608;2024-03-17T13:29:11;14.88;56.31
80579;SHT31;69939;52.402;6.608;2024-03-17T13:31:41;14.99;58.67
80579;SHT31;69939;52.402;6.608;2024-03-17T13:34:10;15.10;57.87
80579;SHT31;69939;52.402;6.608;2024-03-17T13:36:40;15.02;58.88
80579;SHT31;69939;52.402;6.608;2024-03-17T13:39:09;14.69;57.47
80579;SHT31;69939;52.402;6.608;2024-03-17T13:41:42;14.51;58.10
80579;SHT31;69939;52.402;6.608;2024-03-17T13:44:12;14.68;58.72
80579;SHT31;69939;52.402;6.608;2024-03-17T13:46:42;14.82;58.72
80579;SHT31;69939;52.402;6.608;2024-03-17T13:49:11;14.72;58.18
80579;SHT31;69939;52.402;6.608;2024-03-17T13:51:41;14.72;59.68
80579;SHT31;69939;52.402;6.608;2024-03-17T13:54:20;14.49;60.36
80579;SHT31;69939;52.402;6.608;2024-03-17T13:56:50;14.38;59.65
80579;SHT31;69939;52.402;6.608;2024-03-17T13:59:22;14.41;60.57
80579;SHT31;69939;52.402;6.608;2024-03-17T14:01:59;14.31;60.38
80579;SHT31;69939;52.402;6.608;2024-03-17T14:04:30;14.28;60.58
80579;SHT31;69939;52.402;6.608;2024-03-17T14:06:59;14.17;61.56
80579;SHT31;69939;52.402;6.608;2024-03-17T14:09:34;14.21;61.77
80579;SHT31;69939;52.402;6.608;2024-03-17T14:12:07;14.27;61.45
80579;SHT31;69939;52.402;6.608;2024-03-17T14:14:37;14.16;62.61
80579;SHT31;69939;52.402;6.608;2024-03-17T14:17:07;13.96;61.95
80579;SHT31;69939;52.402;6.608;2024-03-17T14:19:39;13.97;61.68
80579;SHT31;69939;52.402;6.608;2024-03-17T14:22:10;14.00;61.46
80579;SHT31;69939;52.402;6.608;2024-03-17T14:24:42;13.93;61.68
80579;SHT31;69939;52.402;6.608;2024-03-17T14:27:12;13.90;61.53
80579;SHT31;69939;52.402;6.608;2024-03-17T14:29:44;13.93;61.97
80579;SHT31;69939;52.402;6.608;2024-03-17T14:32:14;13.86;61.69
80579;SHT31;69939;52.402;6.608;2024-03-17T14:34:44;13.83;62.42
80579;SHT31;69939;52.402;6.608;2024-03-17T14:37:15;13.76;63.58
80579;SHT31;69939;52.402;6.608;2024-03-17T14:39:47;13.79;63.05
80579;SHT31;69939;52.402;6.608;2024-03-17T14:42:18;13.70;63.20
80579;SHT31;69939;52.402;6.608;2024-03-17T14:44:50;13.66;63.55
80579;SHT31;69939;52.402;6.608;2024-03-17T14:47:21;13.66;63.42
80579;SHT31;69939;52.402;6.608;2024-03-17T14:49:50;13.72;63.98
80579;SHT31;69939;52.402;6.608;2024-03-17T14:52:20;13.69;63.73
80579;SHT31;69939;52.402;6.608;2024-03-17T14:54:53;13.68;63.64
80579;SHT31;69939;52.402;6.608;2024-03-17T14:57:22;13.70;63.34
80579;SHT31;69939;52.402;6.608;2024-03-17T14:59:52;13.73;66.00
80579;SHT31;69939;52.402;6.608;2024-03-17T15:02:21;13.73;64.41
80579;SHT31;69939;52.402;6.608;2024-03-17T15:04:52;13.73;64.49
80579;SHT31;69939;52.402;6.608;2024-03-17T15:07:21;13.61;63.74
80579;SHT31;69939;52.402;6.608;2024-03-17T15:09:53;13.59;64.73
80579;SHT31;69939;52.402;6.608;2024-03-17T15:12:23;13.56;64.64
80579;SHT31;69939;52.402;6.608;2024-03-17T15:14:53;13.62;64.88
80579;SHT31;69939;52.402;6.608;2024-03-17T15:17:23;13.62;64.12
80579;SHT31;69939;52.402;6.608;2024-03-17T15:20:05;13.54;64.89
80579;SHT31;69939;52.402;6.608;2024-03-17T15:22:41;13.54;64.85
80579;SHT31;69939;52.402;6.608;2024-03-17T15:25:12;13.56;65.98
80579;SHT31;69939;52.402;6.608;2024-03-17T15:27:42;13.59;65.76
80579;SHT31;69939;52.402;6.608;2024-03-17T15:30:14;13.49;65.03
80579;SHT31;69939;52.402;6.608;2024-03-17T15:32:44;13.44;65.37
80579;SHT31;69939;52.402;6.608;2024-03-17T15:35:17;13.35;65.67
80579;SHT31;69939;52.402;6.608;2024-03-17T15:37:47;13.25;66.49
80579;SHT31;69939;52.402;6.608;2024-03-17T15:40:18;13.14;66.85
80579;SHT31;69939;52.402;6.608;2024-03-17T15:42:48;13.10;67.00
80579;SHT31;69939;52.402;6.608;2024-03-17T15:45:19;13.06;66.07
80579;SHT31;69939;52.402;6.608;2024-03-17T15:47:51;12.94;66.58
80579;SHT31;69939;52.402;6.608;2024-03-17T15:50:25;12.93;67.30
80579;SHT31;69939;52.402;6.608;2024-03-17T15:52:56;12.89;67.07
80579;SHT31;69939;52.402;6.608;2024-03-17T15:55:27;12.86;67.47
80579;SHT31;69939;52.402;6.608;2024-03-17T15:57:58;12.80;67.64
80579;SHT31;69939;52.402;6.608;2024-03-17T16:00:27;12.82;68.04
80579;SHT31;69939;52.402;6.608;2024-03-17T16:02:57;12.73;67.35
80579;SHT31;69939;52.402;6.608;2024-03-17T16:05:30;12.70;67.58
80579;SHT31;69939;52.402;6.608;2024-03-17T16:08:09;12.62;68.00